Time;durP1;ratioP1;P1;durP2;ratioP2;P2;SDS_P1;SDS_P2;PMS_P1;PMS_P2;Temp;Humidity;BMP_temperature;BMP_pressure;BME280_temperature;BME280_humidity;BME280_pressure;Samples;Min_cycle;Max_cycle;Signal;HPM_P1;HPM_P2
2022/10/30 00:00:04;;;;;;;37.10;14.68;;;;;;;12.75;99.86;99742.25;8505319;27;20039;-79
2022/10/30 00:04:25;;;;;;;34.38;15.77;;;;;;;12.71;99.91;99752.09;8510801;27;20049;-79
2022/10/30 00:08:44;;;;;;;39.70;14.68;;;;;;;12.66;99.83;99752.22;8467570;27;20058;-79
2022/10/30 00:12:45;;;;;;;28.85;13.98;;;;;;;12.63;99.83;99744.72;8481492;27;20035;-80
2022/10/30 00:16:46;;;;;;;32.92;14.98;;;;;;;12.58;99.94;99736.72;8470222;27;20074;-79
2022/10/30 00:20:47;;;;;;;38.22;15.70;;;;;;;12.55;99.90;99738.09;8505510;27;20096;-79
2022/10/30 00:24:48;;;;;;;31.70;17.52;;;;;;;12.56;99.77;99744.31;8500059;27;20065;-79
2022/10/30 00:28:53;;;;;;;41.95;19.58;;;;;;;12.55;99.75;99742.72;8505596;27;20061;-79
2022/10/30 00:33:13;;;;;;;38.25;19.88;;;;;;;12.51;99.73;99736.31;8498615;27;20123;-79
2022/10/30 00:37:14;;;;;;;36.38;18.33;;;;;;;12.47;99.95;99735.34;8503401;27;20046;-79
2022/10/30 00:41:17;;;;;;;38.10;18.30;;;;;;;12.45;99.85;99721.28;8513421;27;20669;-80
2022/10/30 00:45:18;;;;;;;42.20;17.85;;;;;;;12.45;100.00;99721.28;8503854;27;20047;-79
2022/10/30 00:49:19;;;;;;;37.60;18.90;;;;;;;12.44;100.00;99719.66;8512277;27;20495;-79
2022/10/30 00:53:20;;;;;;;42.88;18.63;;;;;;;12.49;100.00;99716.84;8498620;27;20047;-78
2022/10/30 00:57:22;;;;;;;32.55;16.48;;;;;;;12.49;99.92;99722.25;8478384;27;20384;-79
2022/10/30 01:01:25;;;;;;;38.72;15.27;;;;;;;12.48;100.00;99720.66;8487232;27;20065;-79
2022/10/30 01:05:29;;;;;;;28.95;14.82;;;;;;;12.47;99.97;99713.66;8511381;27;20047;-79
2022/10/30 01:09:30;;;;;;;34.90;16.05;;;;;;;12.43;100.00;99715.34;8500255;27;20119;-80
2022/10/30 01:13:33;;;;;;;31.65;13.85;;;;;;;12.40;100.00;99707.84;8482735;27;20788;-78
2022/10/30 01:17:34;;;;;;;26.55;14.10;;;;;;;12.38;100.00;99710.06;8499234;27;20039;-79
2022/10/30 01:21:54;;;;;;;25.73;13.70;;;;;;;12.34;100.00;99711.78;8496663;27;20091;-79
2022/10/30 01:26:05;;;;;;;29.52;13.45;;;;;;;12.30;100.00;99721.63;8507307;27;20420;-79
2022/10/30 01:30:15;;;;;;;27.55;14.40;;;;;;;12.26;100.00;99730.38;8513493;27;20403;-79
2022/10/30 01:34:23;;;;;;;25.08;13.25;;;;;;;12.24;100.00;99727.16;8489862;27;20051;-80
2022/10/30 01:38:43;;;;;;;28.20;14.18;;;;;;;12.16;100.00;99725.16;8518978;27;20047;-79
2022/10/30 01:42:46;;;;;;;32.72;13.38;;;;;;;12.14;100.00;99735.50;8477286;27;20070;-79
2022/10/30 01:47:12;;;;;;;31.10;14.20;;;;;;;12.10;100.00;99720.97;8495643;27;20083;-79
2022/10/30 01:51:51;;;;;;;34.35;15.70;;;;;;;12.08;100.00;99717.75;8480533;27;20062;-79
2022/10/30 01:56:38;;;;;;;35.47;15.95;;;;;;;12.05;100.00;99707.56;8481891;27;20441;-79
2022/10/30 02:00:41;;;;;;;31.17;14.38;;;;;;;12.03;100.00;99715.16;8498791;27;20476;-79
2022/10/30 02:05:00;;;;;;;38.33;15.70;;;;;;;11.99;100.00;99703.34;8425322;28;20571;-79
2022/10/30 02:09:01;;;;;;;36.97;14.50;;;;;;;11.96;100.00;99712.06;8416755;28;20056;-79
2022/10/30 02:13:02;;;;;;;32.42;13.98;;;;;;;11.95;100.00;99712.38;8424597;28;20052;-79
2022/10/30 02:17:05;;;;;;;23.52;13.32;;;;;;;11.91;100.00;99698.63;8448648;28;20533;-80
2022/10/30 02:21:07;;;;;;;33.05;15.48;;;;;;;11.84;100.00;99695.56;8435895;28;20044;-80
2022/10/30 02:25:08;;;;;;;37.67;14.40;;;;;;;11.79;100.00;99692.94;8433556;28;20086;-80
2022/10/30 02:29:09;;;;;;;30.17;15.63;;;;;;;11.78;100.00;99696.75;8449784;28;20043;-80
2022/10/30 02:33:10;;;;;;;31.58;14.82;;;;;;;11.74;100.00;99701.94;8438123;27;20036;-80
2022/10/30 02:37:11;;;;;;;31.73;16.05;;;;;;;11.70;100.00;99686.59;8499199;27;20084;-80
2022/10/30 02:41:30;;;;;;;;;;;;;;;11.67;100.00;99689.91;8504205;27;20116;-79
2022/10/30 02:45:31;;;;;;;46.75;20.80;;;;;;;11.67;100.00;99689.91;8458695;27;19919;-79
2022/10/30 02:49:32;;;;;;;44.85;19.80;;;;;;;11.62;100.00;99708.94;8476441;27;20071;-78
2022/10/30 02:53:34;;;;;;;43.63;19.52;;;;;;;11.61;100.00;99712.75;8501894;27;20051;-79
2022/10/30 02:57:34;;;;;;;39.05;20.00;;;;;;;11.58;100.00;99697.91;8512213;27;20058;-79
2022/10/30 03:01:54;;;;;;;50.05;24.80;;;;;;;11.53;100.00;99697.22;8507525;27;20100;-78
2022/10/30 03:05:55;;;;;;;60.78;27.83;;;;;;;11.52;100.00;99703.75;8509276;27;20035;-78
2022/10/30 03:10:14;;;;;;;50.67;24.17;;;;;;;11.50;100.00;99705.94;8504931;27;20126;-78
2022/10/30 03:14:33;;;;;;;61.65;30.25;;;;;;;11.47;100.00;99717.38;8493119;27;20082;-78
2022/10/30 03:18:35;;;;;;;69.38;33.63;;;;;;;11.46;100.00;99718.47;8508014;27;20558;-79
2022/10/30 03:22:54;;;;;;;54.92;29.63;;;;;;;11.47;100.00;99710.06;8496730;27;20058;-79
2022/10/30 03:26:55;;;;;;;63.22;31.00;;;;;;;11.46;100.00;99700.34;8510533;27;20043;-79
2022/10/30 03:31:04;;;;;;;57.35;28.75;;;;;;;11.40;100.00;99702.34;8498916;27;20708;-79
2022/10/30 03:35:06;;;;;;;60.20;30.88;;;;;;;11.39;100.00;99695.31;8514936;27;20484;-79
2022/10/30 03:39:07;;;;;;;71.03;35.90;;;;;;;11.33;100.00;99707.31;8482479;27;20055;-79
2022/10/30 03:43:26;;;;;;;69.93;32.72;;;;;;;11.34;100.00;99703.53;8509199;27;20065;-79
2022/10/30 03:47:45;;;;;;;68.65;33.92;;;;;;;11.33;100.00;99712.72;8503925;27;20114;-79
2022/10/30 03:51:46;;;;;;;58.50;29.90;;;;;;;11.32;100.00;99713.81;8513252;27;20681;-79
2022/10/30 03:55:47;;;;;;;54.72;29.02;;;;;;;11.33;100.00;99707.31;8465373;27;20043;-79
2022/10/30 03:59:48;;;;;;;67.57;31.15;;;;;;;11.35;100.00;99715.94;8453562;27;20494;-80
2022/10/30 04:03:49;;;;;;;66.88;33.47;;;;;;;11.32;100.00;99705.72;8510825;27;20073;-79
2022/10/30 04:08:01;;;;;;;52.90;29.63;;;;;;;11.32;100.00;99705.72;8512346;27;20078;-79
2022/10/30 04:12:03;;;;;;;62.83;33.58;;;;;;;11.31;100.00;99714.94;8510169;27;20089;-79
2022/10/30 04:16:05;;;;;;;57.70;28.95;;;;;;;11.33;100.00;99712.72;8499038;27;20058;-79
2022/10/30 04:20:07;;;;;;;62.00;27.98;;;;;;;11.31;100.00;99693.31;8497610;27;20071;-79
2022/10/30 04:24:08;;;;;;;60.80;29.95;;;;;;;11.32;100.00;99691.38;8500824;27;20055;-79
2022/10/30 04:28:09;;;;;;;55.95;29.27;;;;;;;11.33;100.00;99691.09;8510457;27;20043;-80
2022/10/30 04:32:11;;;;;;;59.47;30.75;;;;;;;11.34;100.00;99676.47;8503275;27;20035;-80
2022/10/30 04:36:32;;;;;;;54.75;27.52;;;;;;;11.35;100.00;99683.50;8486411;27;20190;-79
2022/10/30 04:40:52;;;;;;;60.58;31.35;;;;;;;11.35;100.00;99666.47;8505172;27;20054;-79
2022/10/30 04:44:53;;;;;;;68.93;31.40;;;;;;;11.34;100.00;99660.25;8497129;27;20183;-79
2022/10/30 04:48:54;;;;;;;59.25;29.83;;;;;;;11.35;100.00;99661.88;8501336;27;20464;-79
2022/10/30 04:53:03;;;;;;;55.90;30.27;;;;;;;11.36;100.00;99663.47;8500848;27;20138;-79
2022/10/30 04:57:22;;;;;;;58.88;28.75;;;;;;;11.36;100.00;99662.66;8509040;27;20619;-80
2022/10/30 05:01:41;;;;;;;54.30;27.65;;;;;;;11.37;100.00;99670.47;8488685;27;20037;-79
2022/10/30 05:05:43;;;;;;;57.88;27.38;;;;;;;11.33;100.00;99669.47;8506390;27;20050;-79
2022/10/30 05:09:43;;;;;;;59.95;27.48;;;;;;;11.31;100.00;99666.28;8485158;27;20058;-79
2022/10/30 05:13:44;;;;;;;51.10;26.25;;;;;;;11.31;100.00;99666.28;8510836;27;20183;-80
2022/10/30 05:17:45;;;;;;;52.15;25.77;;;;;;;11.30;100.00;99670.06;8519572;27;20043;-79
2022/10/30 05:21:46;;;;;;;46.70;24.58;;;;;;;11.27;100.00;99676.06;8500716;27;20076;-79
2022/10/30 05:25:47;;;;;;;57.90;27.10;;;;;;;11.26;100.00;99689.91;8497997;27;20055;-79
2022/10/30 05:29:48;;;;;;;49.78;25.80;;;;;;;11.23;100.00;99691.28;8517146;27;20039;-79
2022/10/30 05:33:49;;;;;;;44.55;26.20;;;;;;;11.18;100.00;99696.78;8502957;27;20059;-81
2022/10/30 05:37:50;;;;;;;43.13;23.00;;;;;;;11.16;100.00;99695.47;8503228;27;20039;-80
2022/10/30 05:42:09;;;;;;;;;;;;;;;11.12;100.00;99700.69;8499669;27;20029;-80
2022/10/30 05:46:10;;;;;;;39.03;21.30;;;;;;;11.06;100.00;99701.88;8509410;27;20332;-80
2022/10/30 05:50:11;;;;;;;46.85;25.60;;;;;;;11.03;100.00;99697.06;8502469;27;20050;-80
2022/10/30 05:54:12;;;;;;;50.33;26.05;;;;;;;11.00;100.00;99692.25;8513213;27;20047;-81
2022/10/30 05:58:13;;;;;;;47.53;25.25;;;;;;;10.96;100.00;99691.22;8504157;27;20515;-80
2022/10/30 06:02:15;;;;;;;39.15;22.08;;;;;;;10.96;100.00;99685.81;8496263;27;20404;-81
2022/10/30 06:06:16;;;;;;;42.35;23.05;;;;;;;10.92;100.00;99691.03;8505191;27;20455;-81
2022/10/30 06:10:36;;;;;;;;;;;;;;;10.96;100.00;99707.44;8498517;27;20050;-81
2022/10/30 06:14:37;;;;;;;38.67;21.23;;;;;;;10.99;100.00;99712.28;8456312;27;20041;-81
2022/10/30 06:18:38;;;;;;;40.85;20.77;;;;;;;11.05;100.00;99708.38;8508971;27;20047;-81
2022/10/30 06:22:39;;;;;;;43.10;21.33;;;;;;;11.11;100.00;99714.47;8476095;28;20074;-81
2022/10/30 06:26:40;;;;;;;40.63;20.10;;;;;;;11.16;100.00;99712.50;8499945;27;20043;-81
2022/10/30 06:30:42;;;;;;;43.05;18.30;;;;;;;11.19;100.00;99722.72;8497236;27;20035;-81
2022/10/30 06:35:02;;;;;;;40.22;19.35;;;;;;;11.21;100.00;99709.69;8498595;27;20086;-81
2022/10/30 06:39:03;;;;;;;38.03;18.90;;;;;;;11.24;100.00;99708.31;8523493;27;20133;-80
2022/10/30 06:43:04;;;;;;;36.60;20.17;;;;;;;11.28;100.00;99718.22;8495850;27;20043;-81
2022/10/30 06:47:23;;;;;;;38.75;19.58;;;;;;;11.30;100.00;99718.75;8495388;27;20050;-81
2022/10/30 06:51:24;;;;;;;37.38;18.05;;;;;;;11.31;100.00;99731.19;8462203;27;20507;-81
2022/10/30 06:55:25;;;;;;;44.65;20.08;;;;;;;11.35;100.00;99734.88;8494106;27;20074;-80
2022/10/30 06:59:26;;;;;;;39.08;19.85;;;;;;;11.40;100.00;99729.38;8495546;27;20111;-81
2022/10/30 07:03:46;;;;;;;39.95;20.45;;;;;;;11.50;100.00;99732.97;8507311;27;20479;-81
2022/10/30 07:07:47;;;;;;;32.53;19.35;;;;;;;11.59;100.00;99736.59;8504824;27;20049;-80
2022/10/30 07:11:48;;;;;;;37.88;20.52;;;;;;;11.70;100.00;99738.00;8514160;27;20042;-81
2022/10/30 07:16:07;;;;;;;43.58;20.45;;;;;;;11.85;100.00;99729.59;8525195;27;20504;-81
2022/10/30 07:20:09;;;;;;;39.78;19.65;;;;;;;11.97;100.00;99743.44;8526532;27;20043;-80
2022/10/30 07:24:10;;;;;;;44.72;20.58;;;;;;;12.11;100.00;99749.63;8458662;27;20387;-80
2022/10/30 07:28:30;;;;;;;42.25;20.65;;;;;;;12.26;100.00;99741.22;8491289;27;20084;-80
2022/10/30 07:32:31;;;;;;;37.85;18.98;;;;;;;12.41;100.00;99736.56;8474013;27;20055;-80
2022/10/30 07:36:50;;;;;;;42.50;18.75;;;;;;;12.58;100.00;99742.13;8464708;27;20066;-80
2022/10/30 07:40:52;;;;;;;35.97;17.90;;;;;;;12.76;100.00;99743.03;8477774;27;20044;-80
2022/10/30 07:44:53;;;;;;;39.03;17.15;;;;;;;12.91;100.00;99734.53;8480133;27;20129;-79
2022/10/30 07:48:55;;;;;;;37.42;16.90;;;;;;;13.08;100.00;99735.47;8470236;27;20492;-79
2022/10/30 07:53:14;;;;;;;33.30;17.38;;;;;;;13.35;100.00;99733.72;8463735;27;20047;-80
2022/10/30 07:57:16;;;;;;;38.13;18.35;;;;;;;13.67;100.00;99719.84;8475999;27;20063;-80
2022/10/30 08:01:35;;;;;;;33.33;16.70;;;;;;;13.99;100.00;99720.56;8478750;27;20732;-79
2022/10/30 08:05:36;;;;;;;28.38;13.88;;;;;;;14.16;100.00;99720.59;8489474;27;20039;-80
2022/10/30 08:09:37;;;;;;;28.63;14.38;;;;;;;14.22;100.00;99713.91;8490745;27;20035;-80
2022/10/30 08:13:38;;;;;;;31.45;14.25;;;;;;;14.28;100.00;99707.19;8484378;27;20036;-79
2022/10/30 08:17:57;;;;;;;26.13;14.20;;;;;;;14.35;100.00;99718.38;8490913;27;20073;-80
2022/10/30 08:22:01;;;;;;;26.42;14.15;;;;;;;14.48;100.00;99722.91;8478991;27;20146;-80
2022/10/30 08:26:02;;;;;;;30.75;15.32;;;;;;;14.62;100.00;99712.66;8507939;27;20054;-80
2022/10/30 08:30:03;;;;;;;31.15;13.85;;;;;;;14.70;99.66;99702.88;8520612;27;20074;-79
2022/10/30 08:34:23;;;;;;;29.83;14.23;;;;;;;14.75;99.24;99700.81;8502760;27;20586;-80
2022/10/30 08:38:25;;;;;;;31.80;14.18;;;;;;;14.83;98.72;99690.25;8516892;27;21178;-81
2022/10/30 08:42:25;;;;;;;44.97;16.10;;;;;;;14.84;98.65;99691.84;8525175;27;20107;-80
2022/10/30 08:46:28;;;;;;;34.42;16.20;;;;;;;14.83;98.50;99698.41;8529271;27;20110;-81
2022/10/30 08:50:30;;;;;;;47.60;20.52;;;;;;;14.88;98.19;99698.25;8523827;27;20496;-81
2022/10/30 08:54:31;;;;;;;42.22;16.60;;;;;;;14.95;97.74;99709.44;8410280;28;20114;-80
2022/10/30 08:58:32;;;;;;;26.02;13.55;;;;;;;15.05;97.32;99703.66;8398312;28;20052;-81
2022/10/30 09:02:51;;;;;;;;;;;;;;;15.21;96.85;99696.56;8399487;28;20552;-80
2022/10/30 09:06:52;;;;;;;35.35;13.75;;;;;;;15.38;95.58;99699.25;8412507;28;19962;-81
2022/10/30 09:10:57;;;;;;;25.75;11.32;;;;;;;15.44;94.94;99706.09;8417296;28;20052;-79
2022/10/30 09:14:58;;;;;;;27.80;10.57;;;;;;;15.53;94.66;99709.63;8411903;28;20125;-80
2022/10/30 09:18:58;;;;;;;20.15;9.50;;;;;;;15.77;93.43;99713.66;8419386;28;20052;-81
2022/10/30 09:22:59;;;;;;;25.70;9.70;;;;;;;16.02;91.63;99715.47;8424293;27;20140;-79
2022/10/30 09:27:00;;;;;;;23.70;10.90;;;;;;;16.24;90.40;99717.88;8504623;27;20059;-79
2022/10/30 09:31:20;;;;;;;21.70;8.23;;;;;;;16.47;88.60;99716.41;8516289;27;20056;-79
2022/10/30 09:35:21;;;;;;;22.25;8.90;;;;;;;16.66;87.70;99712.44;8527190;27;20186;-80
2022/10/30 09:39:22;;;;;;;19.20;8.50;;;;;;;16.80;87.71;99715.69;8508945;27;20046;-80
2022/10/30 09:43:26;;;;;;;20.80;8.57;;;;;;;16.92;87.63;99710.28;8509350;27;20035;-79
2022/10/30 09:47:29;;;;;;;18.88;8.23;;;;;;;17.08;86.08;99708.50;8523212;27;20046;-80
2022/10/30 09:51:48;;;;;;;21.08;7.57;;;;;;;17.24;85.51;99700.47;8482025;27;20047;-79
2022/10/30 09:56:27;;;;;;;20.30;7.25;;;;;;;17.42;84.57;99701.06;8503159;27;20143;-79
2022/10/30 10:01:11;;;;;;;28.40;6.80;;;;;;;17.58;83.09;99699.28;8501264;27;20062;-80
2022/10/30 10:05:20;;;;;;;21.38;8.25;;;;;;;17.75;83.01;99696.34;8346135;28;20053;-79
2022/10/30 10:09:23;;;;;;;24.60;8.13;;;;;;;17.93;81.31;99700.44;8361442;28;20139;-80
2022/10/30 10:13:32;;;;;;;19.90;7.30;;;;;;;18.09;80.74;99687.66;8349581;28;20057;-79
2022/10/30 10:17:52;;;;;;;21.60;6.90;;;;;;;18.30;77.38;99681.22;8344498;28;20103;-78
2022/10/30 10:22:00;;;;;;;26.33;7.18;;;;;;;18.45;76.63;99689.50;8330472;28;20506;-79
2022/10/30 10:26:10;;;;;;;21.55;8.02;;;;;;;18.55;76.11;99677.34;8343793;28;20049;-80
2022/10/30 10:30:17;;;;;;;29.63;9.32;;;;;;;18.68;76.53;99669.84;8336371;28;20091;-80
2022/10/30 10:34:34;;;;;;;19.33;8.20;;;;;;;18.84;76.28;99668.75;8351885;28;20056;-79
2022/10/30 10:38:50;;;;;;;23.67;8.43;;;;;;;19.04;75.65;99666.13;8341078;28;20037;-80
2022/10/30 10:43:28;;;;;;;21.45;8.35;;;;;;;19.32;75.02;99673.16;8512154;27;20084;-80
2022/10/30 10:47:31;;;;;;;18.88;7.90;;;;;;;19.42;73.95;99671.81;8528192;27;20034;-80
2022/10/30 10:51:33;;;;;;;23.60;9.05;;;;;;;19.31;74.32;99670.75;8530590;27;20480;-80
2022/10/30 10:55:37;;;;;;;20.40;8.70;;;;;;;19.24;74.51;99671.38;8491760;27;20067;-80
2022/10/30 10:59:45;;;;;;;34.28;9.55;;;;;;;19.15;75.54;99661.72;8518994;27;20050;-80
2022/10/30 11:03:54;;;;;;;26.15;9.45;;;;;;;19.31;75.27;99657.06;8504606;27;20194;-80
2022/10/30 11:08:05;;;;;;;22.27;8.52;;;;;;;19.52;75.04;99652.13;8508794;27;20050;-81
2022/10/30 11:12:07;;;;;;;21.58;8.68;;;;;;;19.71;75.04;99652.22;8508454;27;20134;-80
2022/10/30 11:16:29;;;;;;;19.60;8.07;;;;;;;19.97;73.21;99653.56;8514456;27;20046;-80
2022/10/30 11:20:39;;;;;;;17.45;7.90;;;;;;;20.15;72.38;99646.53;8510173;27;20047;-81
2022/10/30 11:24:40;;;;;;;23.60;8.98;;;;;;;20.25;71.39;99638.53;8504331;27;20043;-81
2022/10/30 11:29:03;;;;;;;16.45;7.82;;;;;;;20.15;71.92;99643.78;8507823;27;20043;-80
2022/10/30 11:33:27;;;;;;;23.27;9.00;;;;;;;19.93;72.03;99628.03;8486618;27;20138;-80
2022/10/30 11:37:48;;;;;;;16.80;8.13;;;;;;;19.83;72.89;99631.34;8504890;27;20416;-80
2022/10/30 11:42:12;;;;;;;25.02;8.27;;;;;;;19.77;73.50;99634.31;8512002;27;20054;-80
2022/10/30 11:46:20;;;;;;;21.02;8.70;;;;;;;19.66;74.01;99622.34;8500038;27;20047;-80
2022/10/30 11:50:23;;;;;;;26.40;9.60;;;;;;;19.62;74.82;99626.94;8528010;27;20433;-81
2022/10/30 11:54:25;;;;;;;30.35;8.90;;;;;;;19.67;75.09;99629.41;8507606;27;20054;-81
2022/10/30 11:58:30;;;;;;;23.50;8.20;;;;;;;19.67;74.62;99617.69;8502140;27;20331;-80
2022/10/30 12:02:52;;;;;;;30.33;9.38;;;;;;;19.69;74.89;99620.84;8506580;27;20041;-80
2022/10/30 12:07:19;;;;;;;26.98;8.85;;;;;;;19.77;74.76;99623.38;8500483;27;20106;-81
2022/10/30 12:11:20;;;;;;;24.25;7.95;;;;;;;19.85;73.89;99623.53;8511255;27;20047;-80
2022/10/30 12:15:26;;;;;;;19.15;7.95;;;;;;;19.97;73.64;99628.91;8506088;27;20035;-81
2022/10/30 12:19:50;;;;;;;19.67;7.82;;;;;;;20.18;73.22;99632.09;8497985;27;20107;-81
2022/10/30 12:24:25;;;;;;;22.73;7.35;;;;;;;20.30;72.63;99640.22;8503357;27;20075;-79
2022/10/30 12:28:28;;;;;;;18.15;7.07;;;;;;;20.40;71.52;99639.66;8523466;27;20991;-80
2022/10/30 12:32:47;;;;;;;17.70;6.93;;;;;;;20.53;70.02;99649.31;8499667;27;20056;-80
2022/10/30 12:36:56;;;;;;;18.45;6.90;;;;;;;20.59;69.03;99642.38;8526730;27;20050;-79
2022/10/30 12:41:24;;;;;;;17.63;7.03;;;;;;;20.59;68.70;99636.91;8469244;27;20047;-78
2022/10/30 12:45:31;;;;;;;18.27;7.30;;;;;;;20.61;68.84;99634.59;8513817;27;20122;-78
2022/10/30 12:49:40;;;;;;;17.63;7.20;;;;;;;20.65;68.79;99626.44;8517943;27;20054;-79
2022/10/30 12:53:50;;;;;;;21.52;7.80;;;;;;;20.98;68.41;99625.88;8502968;27;20043;-80
2022/10/30 12:58:02;;;;;;;26.92;8.45;;;;;;;21.38;67.68;99623.44;8506781;27;20047;-80
2022/10/30 13:02:14;;;;;;;21.55;7.18;;;;;;;21.71;66.72;99619.22;8530645;27;20038;-80
2022/10/30 13:06:19;;;;;;;18.90;7.70;;;;;;;22.03;65.85;99626.00;8524186;27;20039;-79
2022/10/30 13:10:20;;;;;;;20.52;6.72;;;;;;;22.10;65.87;99617.81;8504995;27;20091;-78
2022/10/30 13:14:28;;;;;;;15.45;6.68;;;;;;;21.78;65.95;99616.59;8487596;27;20174;-80
2022/10/30 13:18:31;;;;;;;17.75;6.28;;;;;;;21.38;67.12;99615.19;8490346;27;20034;-80
2022/10/30 13:22:56;;;;;;;19.15;5.55;;;;;;;21.18;67.63;99630.16;8523980;27;20042;-80
2022/10/30 13:27:02;;;;;;;21.92;6.88;;;;;;;21.07;67.12;99618.97;8503573;27;20514;-80
2022/10/30 13:31:22;;;;;;;16.30;6.15;;;;;;;20.93;68.03;99612.44;8535705;27;20053;-80
2022/10/30 13:35:26;;;;;;;16.40;6.38;;;;;;;20.74;68.77;99604.22;8504459;27;20047;-80
2022/10/30 13:39:37;;;;;;;31.85;6.15;;;;;;;20.59;69.52;99608.66;8505012;27;20574;-81
2022/10/30 13:43:47;;;;;;;18.98;6.47;;;;;;;20.52;69.77;99614.81;8487058;27;20975;-80
2022/10/30 13:47:54;;;;;;;18.08;6.05;;;;;;;20.52;69.56;99603.81;8516756;27;20129;-80
2022/10/30 13:51:58;;;;;;;14.37;6.10;;;;;;;20.51;69.52;99591.28;8522815;27;20051;-80
2022/10/30 13:55:59;;;;;;;22.58;6.85;;;;;;;20.53;68.68;99591.69;8511505;27;20046;-79
2022/10/30 14:00:00;;;;;;;15.75;5.63;;;;;;;20.59;68.63;99597.69;8520463;27;20042;-80
2022/10/30 14:04:16;;;;;;;16.08;6.55;;;;;;;20.56;69.19;99582.75;8525811;27;20480;-81
2022/10/30 14:09:01;;;;;;;20.17;5.43;;;;;;;20.46;69.50;99577.84;8502529;27;20050;-81
2022/10/30 14:13:10;;;;;;;;;;;;;;;20.35;69.75;99571.38;8522462;27;20103;-81
2022/10/30 14:17:13;;;;;;;19.48;6.32;;;;;;;20.33;69.62;99573.69;8504164;27;19926;-80
2022/10/30 14:21:29;;;;;;;22.40;6.38;;;;;;;20.29;69.71;99572.00;8520163;27;20459;-81
2022/10/30 14:25:30;;;;;;;18.05;6.10;;;;;;;20.19;70.26;99567.88;8524615;27;20118;-81
2022/10/30 14:29:37;;;;;;;17.25;5.82;;;;;;;20.09;70.94;99568.47;8497890;27;20055;-81
2022/10/30 14:33:51;;;;;;;25.48;7.15;;;;;;;19.97;71.33;99571.34;8516955;27;20047;-81
2022/10/30 14:37:54;;;;;;;20.55;7.25;;;;;;;19.83;71.97;99567.13;8412887;28;20044;-81
2022/10/30 14:42:26;;;;;;;17.98;6.90;;;;;;;19.68;72.54;99562.50;8440112;28;20044;-81
2022/10/30 14:46:30;;;;;;;22.77;7.80;;;;;;;19.55;73.32;99566.53;8438235;28;20052;-81
2022/10/30 14:50:57;;;;;;;29.10;10.68;;;;;;;19.38;74.17;99561.41;8425805;28;20048;-81
2022/10/30 14:54:58;;;;;;;34.55;12.65;;;;;;;19.23;75.08;99564.94;8446665;28;20052;-80
2022/10/30 14:59:14;;;;;;;32.33;13.70;;;;;;;19.03;76.27;99560.56;8453166;28;20796;-81
2022/10/30 15:03:20;;;;;;;39.03;16.20;;;;;;;18.83;76.95;99557.69;8460728;28;20044;-81
2022/10/30 15:07:20;;;;;;;31.83;13.73;;;;;;;18.64;77.86;99554.88;8464011;27;20058;-81
2022/10/30 15:11:46;;;;;;;;;;;;;;;18.44;78.77;99553.94;8504093;27;20092;-81
2022/10/30 15:16:02;;;;;;;30.08;14.23;;;;;;;18.22;79.57;99554.50;8432755;28;19931;-81
2022/10/30 15:20:24;;;;;;;30.23;13.15;;;;;;;18.04;80.50;99555.91;8444519;28;20120;-81
2022/10/30 15:24:26;;;;;;;27.67;11.93;;;;;;;17.82;81.13;99557.22;8423493;28;20048;-81
2022/10/30 15:28:49;;;;;;;31.17;13.32;;;;;;;17.61;82.03;99567.53;8460022;28;20155;-81
2022/10/30 15:32:50;;;;;;;29.38;12.43;;;;;;;17.39;82.94;99570.72;8445234;28;20062;-81
2022/10/30 15:36:51;;;;;;;42.28;17.58;;;;;;;17.18;83.69;99571.59;8439291;28;20052;-81
2022/10/30 15:40:58;;;;;;;48.72;21.88;;;;;;;16.99;83.99;99568.66;8442529;28;20056;-81
2022/10/30 15:44:59;;;;;;;57.20;26.30;;;;;;;16.83;84.34;99565.78;8451376;27;20554;-81
2022/10/30 15:49:00;;;;;;;59.67;26.60;;;;;;;16.72;84.62;99563.84;8504239;27;20059;-81
2022/10/30 15:53:01;;;;;;;78.13;32.88;;;;;;;16.56;85.02;99565.59;8510881;27;20062;-81
2022/10/30 15:57:03;;;;;;;90.07;39.42;;;;;;;16.42;85.17;99566.69;8470864;27;20066;-81
2022/10/30 16:01:04;;;;;;;70.57;30.20;;;;;;;16.26;85.54;99568.44;8471615;27;20405;-81
2022/10/30 16:05:21;;;;;;;40.60;18.20;;;;;;;16.14;86.07;99557.50;8493037;27;20047;-82
2022/10/30 16:09:24;;;;;;;31.63;16.80;;;;;;;16.07;86.07;99565.44;8510222;27;20059;-81
2022/10/30 16:13:29;;;;;;;30.65;13.57;;;;;;;16.00;86.06;99576.06;8430910;28;20044;-81
2022/10/30 16:17:29;;;;;;;50.05;24.13;;;;;;;15.85;86.32;99584.81;8446562;28;20051;-81
2022/10/30 16:21:34;;;;;;;44.70;19.15;;;;;;;15.68;86.57;99574.06;8427117;28;20130;-81
2022/10/30 16:25:57;;;;;;;40.33;18.77;;;;;;;15.51;86.97;99575.75;8430374;28;20449;-82
2022/10/30 16:30:01;;;;;;;37.60;16.20;;;;;;;15.45;87.12;99587.94;8429045;28;20508;-81
2022/10/30 16:34:02;;;;;;;36.28;17.17;;;;;;;15.37;87.28;99586.06;8425068;28;20044;-81
2022/10/30 16:38:10;;;;;;;43.30;18.63;;;;;;;15.31;87.53;99581.94;8439829;28;20052;-81
2022/10/30 16:42:20;;;;;;;37.80;18.05;;;;;;;15.23;87.59;99586.28;8391494;27;20158;-81
2022/10/30 16:46:26;;;;;;;43.30;18.10;;;;;;;15.18;87.78;99577.50;8499776;27;20043;-81
2022/10/30 16:50:34;;;;;;;35.65;20.60;;;;;;;15.13;88.05;99585.84;8500345;27;20047;-81
2022/10/30 16:55:05;;;;;;;32.47;17.65;;;;;;;15.08;88.51;99584.09;8479230;27;20054;-81
2022/10/30 16:59:36;;;;;;;28.35;14.55;;;;;;;15.11;88.53;99588.09;8501498;27;20037;-81
2022/10/30 17:03:41;;;;;;;40.85;17.55;;;;;;;15.08;88.48;99583.31;8481302;27;20058;-82
2022/10/30 17:07:56;;;;;;;46.70;17.75;;;;;;;15.06;89.18;99588.28;8504745;27;20097;-81
2022/10/30 17:12:08;;;;;;;35.15;14.85;;;;;;;15.07;89.00;99587.16;8443115;27;20134;-81
2022/10/30 17:16:15;;;;;;;37.95;17.55;;;;;;;15.03;89.27;99586.22;8458155;27;20108;-81
2022/10/30 17:20:19;;;;;;;29.27;15.05;;;;;;;15.02;89.26;99590.03;8500758;27;20043;-81
2022/10/30 17:24:32;;;;;;;37.10;15.82;;;;;;;15.01;89.51;99594.72;8441700;27;20333;-81
2022/10/30 17:28:51;;;;;;;24.73;12.15;;;;;;;15.00;89.35;99597.75;8471094;27;20557;-81
2022/10/30 17:32:53;;;;;;;24.70;10.40;;;;;;;14.99;89.45;99607.03;8473813;27;20405;-81
2022/10/30 17:36:58;;;;;;;27.42;11.00;;;;;;;14.90;89.78;99598.13;8469815;27;20055;-81
2022/10/30 17:41:00;;;;;;;30.48;11.80;;;;;;;14.85;90.33;99601.00;8469269;27;20047;-81
2022/10/30 17:45:20;;;;;;;34.47;11.88;;;;;;;14.82;90.65;99607.88;8449721;27;20499;-82
2022/10/30 17:49:28;;;;;;;24.55;10.50;;;;;;;14.81;90.99;99606.28;8477024;27;20358;-81
2022/10/30 17:53:29;;;;;;;26.00;10.63;;;;;;;14.75;91.16;99611.09;8471514;27;20047;-82
2022/10/30 17:57:31;;;;;;;30.98;12.20;;;;;;;14.67;91.22;99606.47;8460264;27;20209;-81
2022/10/30 18:01:50;;;;;;;19.95;10.18;;;;;;;14.62;91.81;99598.50;8464777;27;20071;-81
2022/10/30 18:05:53;;;;;;;35.88;14.93;;;;;;;14.58;91.90;99608.44;8444961;27;20048;-81
2022/10/30 18:09:57;;;;;;;26.77;13.60;;;;;;;14.51;92.25;99608.13;8464842;27;20051;-81
2022/10/30 18:13:58;;;;;;;30.58;14.43;;;;;;;14.45;92.34;99603.97;8463148;28;20130;-81
2022/10/30 18:18:17;;;;;;;24.05;11.38;;;;;;;14.42;92.22;99614.69;8465991;27;20042;-81
2022/10/30 18:22:18;;;;;;;23.83;9.85;;;;;;;14.39;92.28;99605.25;8473759;27;20051;-81
2022/10/30 18:26:23;;;;;;;19.13;9.93;;;;;;;14.34;92.57;99608.09;8504565;27;20055;-81
2022/10/30 18:30:25;;;;;;;27.63;10.90;;;;;;;14.28;92.50;99609.38;8497373;27;20115;-81
2022/10/30 18:34:26;;;;;;;22.33;9.85;;;;;;;14.22;92.72;99610.69;8484353;27;20041;-81
2022/10/30 18:38:27;;;;;;;20.63;9.40;;;;;;;14.14;93.05;99608.75;8498625;27;20062;-81
2022/10/30 18:42:28;;;;;;;25.38;9.10;;;;;;;14.04;93.11;99596.28;8489401;27;20392;-81
2022/10/30 18:46:30;;;;;;;25.92;10.98;;;;;;;13.95;93.79;99590.88;8504830;27;20047;-81
2022/10/30 18:50:31;;;;;;;21.80;11.77;;;;;;;13.86;94.36;99598.19;8486685;27;20043;-81
2022/10/30 18:54:32;;;;;;;19.42;8.68;;;;;;;13.83;94.54;99593.41;8457163;27;20081;-80
2022/10/30 18:58:51;;;;;;;;;;;;;;;13.82;94.23;99594.50;8478057;27;20641;-80
2022/10/30 19:02:52;;;;;;;27.27;11.88;;;;;;;13.78;94.13;99596.28;8512847;27;19926;-81